| time (UTC) | temp F | wind direction | speed knots | gust knots | rain 1hr in | rain 24hr in | rain mn in | humidity % | barometer mb |
| 20260504213316 | 75 | 180 | 0.9 | 1.7 | 0.00 | 0.00 | 0.00 | 38 | 1013.4 |
| 20260504212337 | 75 | 0.0 | 0.9 | 0.00 | 0.00 | 0.00 | 37 | 1013.5 | |
| 20260504211317 | 75 | 113 | 1.7 | 2.6 | 0.00 | 0.00 | 0.00 | 38 | 1013.6 |
| 20260504210317 | 75 | 248 | 0.9 | 3.5 | 0.00 | 0.00 | 0.00 | 37 | 1013.4 |
| 20260504205317 | 75 | 225 | 1.7 | 2.6 | 0.00 | 0.00 | 0.00 | 38 | 1013.3 |
| 20260504204317 | 74 | 248 | 1.7 | 1.7 | 0.00 | 0.00 | 0.00 | 39 | 1013.3 |
| 20260504203317 | 74 | 248 | 0.9 | 2.6 | 0.00 | 0.00 | 0.00 | 39 | 1013.5 |
| 20260504202317 | 74 | 270 | 1.7 | 2.6 | 0.00 | 0.00 | 0.00 | 39 | 1013.7 |
| 20260504201337 | 73 | 0.0 | 1.7 | 0.00 | 0.00 | 0.00 | 39 | 1013.9 | |
| 20260504200317 | 74 | 225 | 2.6 | 3.5 | 0.00 | 0.00 | 0.00 | 37 | 1014.0 |
| 20260504195317 | 75 | 248 | 1.7 | 3.5 | 0.00 | 0.00 | 0.00 | 37 | 1014.0 |
| 20260504194337 | 74 | 225 | 0.9 | 1.7 | 0.00 | 0.00 | 0.00 | 38 | 1014.0 |
| 20260504193317 | 74 | 248 | 1.7 | 3.5 | 0.00 | 0.00 | 0.00 | 38 | 1014.2 |
| 20260504192337 | 74 | 203 | 0.9 | 2.6 | 0.00 | 0.00 | 0.00 | 37 | 1014.3 |
| 20260504191317 | 74 | 0.0 | 0.9 | 0.00 | 0.00 | 0.00 | 38 | 1014.4 | |
| 20260504190316 | 75 | 203 | 0.9 | 2.6 | 0.00 | 0.00 | 0.00 | 35 | 1014.8 |
| 20260504185317 | 74 | 338 | 0.9 | 2.6 | 0.00 | 0.00 | 0.00 | 35 | 1014.8 |
| 20260504184316 | 74 | 158 | 0.9 | 2.6 | 0.00 | 0.00 | 0.00 | 37 | 1014.9 |
| 20260504183316 | 73 | 180 | 0.9 | 1.7 | 0.00 | 0.00 | 0.00 | 37 | 1015.0 |
| 20260504182316 | 73 | 203 | 0.9 | 1.7 | 0.00 | 0.00 | 0.00 | 40 | 1015.2 |
| 20260504181316 | 72 | 0.0 | 0.9 | 0.00 | 0.00 | 0.00 | 40 | 1015.3 | |
| 20260504180317 | 72 | 0.0 | 0.9 | 0.00 | 0.00 | 0.00 | 40 | 1015.4 | |
| 20260504175316 | 71 | 0.0 | 0.9 | 0.00 | 0.00 | 0.00 | 39 | 1015.6 | |
| 20260504174316 | 73 | 0.0 | 0.9 | 0.00 | 0.00 | 0.00 | 38 | 1015.5 | |
| 20260504173317 | 75 | 135 | 0.9 | 1.7 | 0.00 | 0.00 | 0.00 | 36 | 1015.5 |
| 20260504172316 | 75 | 225 | 0.9 | 1.7 | 0.00 | 0.00 | 0.00 | 36 | 1015.7 |
| 20260504171316 | 75 | 203 | 0.9 | 1.7 | 0.00 | 0.00 | 0.00 | 35 | 1015.8 |
| 20260504170317 | 76 | 248 | 1.7 | 2.6 | 0.00 | 0.00 | 0.00 | 33 | 1015.9 |
| 20260504160316 | 72 | 248 | 0.9 | 1.7 | 0.00 | 0.00 | 0.00 | 37 | 1016.6 |
| 20260504150316 | 70 | 225 | 0.9 | 1.7 | 0.00 | 0.00 | 0.00 | 40 | 1017.2 |
| 20260504141316 | 65 | 225 | 1.7 | 2.6 | 0.00 | 0.00 | 0.00 | 39 | 1017.0 |
| 20260504140316 | 65 | 203 | 0.9 | 1.7 | 0.00 | 0.00 | 0.00 | 46 | 1017.1 |
| 20260504130316 | 56 | 0.0 | 0.9 | 0.00 | 0.00 | 0.00 | 59 | 1017.4 | |
| 20260504120316 | 48 | 0.0 | 0.0 | 0.00 | 0.00 | 0.00 | 76 | 1017.8 | |
| 20260504110316 | 44 | 0.0 | 0.0 | 0.00 | 0.00 | 0.00 | 77 | 1018.0 | |
| 20260504100316 | 46 | 0.0 | 0.9 | 0.00 | 0.00 | 0.00 | 71 | 1017.6 | |
| 20260504081336 | 51 | 0.0 | 0.0 | 0.00 | 0.00 | 0.00 | 59 | 1017.9 | |
| 20260504080315 | 51 | 0.0 | 0.0 | 0.00 | 0.00 | 0.00 | 59 | 1017.7 | |
| 20260504070315 | 51 | 0.0 | 0.0 | 0.00 | 0.00 | 0.00 | 59 | 1017.9 | |
| 20260504050317 | 50 | 0.0 | 0.0 | 0.00 | 0.00 | 0.00 | 64 | 1018.2 | |
| 20260504045317 | 50 | 0.0 | 0.0 | 0.00 | 0.00 | 0.00 | 65 | 1018.1 | |
| 20260504044337 | 50 | 0.0 | 0.0 | 0.00 | 0.00 | 0.00 | 63 | 1018.2 | |
| 20260504043337 | 50 | 0.0 | 0.0 | 0.00 | 0.00 | 0.00 | 64 | 1018.1 | |
| 20260504042317 | 50 | 0.0 | 0.0 | 0.00 | 0.00 | 0.00 | 63 | 1018.0 | |
| 20260504041317 | 50 | 0.0 | 0.0 | 0.00 | 0.00 | 0.00 | 64 | 1018.0 | |
| 20260504040317 | 50 | 0.0 | 0.0 | 0.00 | 0.00 | 0.00 | 65 | 1018.0 | |
| 20260504035317 | 49 | 0.0 | 0.0 | 0.00 | 0.00 | 0.00 | 65 | 1017.9 | |
| 20260504034317 | 49 | 0.0 | 0.0 | 0.00 | 0.00 | 0.00 | 65 | 1018.0 | |
| 20260504033317 | 49 | 0.0 | 0.0 | 0.00 | 0.00 | 0.00 | 65 | 1017.9 | |
| 20260504032317 | 49 | 0.0 | 0.0 | 0.00 | 0.00 | 0.00 | 65 | 1017.9 | |
| 20260504031337 | 49 | 0.0 | 0.0 | 0.00 | 0.00 | 0.00 | 66 | 1017.9 | |
| 20260504030317 | 50 | 0.0 | 0.0 | 0.00 | 0.00 | 0.00 | 66 | 1017.9 | |
| 20260504025337 | 50 | 0.0 | 0.0 | 0.00 | 0.00 | 0.00 | 64 | 1018.1 | |
| 20260504024317 | 50 | 0.0 | 0.0 | 0.00 | 0.00 | 0.00 | 63 | 1018.0 | |
| 20260504023317 | 50 | 0.0 | 0.0 | 0.00 | 0.00 | 0.00 | 62 | 1017.9 | |
| 20260504022317 | 50 | 0.0 | 0.0 | 0.00 | 0.00 | 0.00 | 61 | 1017.9 | |
| 20260504021337 | 50 | 0.0 | 0.0 | 0.00 | 0.00 | 0.00 | 59 | 1017.6 | |
| 20260504020317 | 50 | 0.0 | 0.0 | 0.00 | 0.00 | 0.00 | 60 | 1017.6 | |
| 20260504015317 | 51 | 0.0 | 0.0 | 0.00 | 0.00 | 0.00 | 59 | 1017.6 | |
| 20260504014317 | 51 | 0.0 | 0.0 | 0.00 | 0.00 | 0.00 | 57 | 1017.4 | |
| 20260504013317 | 51 | 0.0 | 0.0 | 0.00 | 0.00 | 0.00 | 57 | 1017.4 | |
| 20260504012317 | 52 | 0.0 | 0.0 | 0.00 | 0.00 | 0.00 | 57 | 1017.3 | |
| 20260504011317 | 52 | 0.0 | 0.0 | 0.00 | 0.00 | 0.00 | 56 | 1017.4 | |
| 20260504010317 | 52 | 0.0 | 0.0 | 0.00 | 0.00 | 0.00 | 55 | 1017.3 | |
| 20260504005317 | 53 | 0.0 | 0.0 | 0.00 | 0.00 | 0.00 | 54 | 1017.2 | |
| 20260504004317 | 53 | 0.0 | 0.0 | 0.00 | 0.00 | 0.00 | 52 | 1017.0 | |
| 20260504003337 | 53 | 0.0 | 0.0 | 0.00 | 0.00 | 0.00 | 52 | 1017.1 | |
| 20260504002317 | 54 | 0.0 | 0.0 | 0.00 | 0.00 | 0.00 | 51 | 1017.0 | |
| 20260504001317 | 55 | 0.0 | 0.0 | 0.00 | 0.00 | 0.00 | 49 | 1016.9 | |
| 20260504000337 | 56 | 0.0 | 0.0 | 0.00 | 0.00 | 0.00 | 46 | 1016.9 | |
| 20260503235317 | 57 | 0.0 | 0.0 | 0.00 | 0.00 | 0.00 | 44 | 1016.8 | |
| 20260503234317 | 58 | 0.0 | 0.0 | 0.00 | 0.00 | 0.00 | 42 | 1016.8 | |
| 20260503233317 | 59 | 0.0 | 0.0 | 0.00 | 0.00 | 0.00 | 38 | 1016.7 | |
| 20260503232317 | 60 | 0.0 | 0.0 | 0.00 | 0.00 | 0.00 | 38 | 1016.7 | |
| 20260503231317 | 60 | 0.0 | 0.9 | 0.00 | 0.00 | 0.00 | 37 | 1016.6 | |
| 20260503230337 | 61 | 0.0 | 0.0 | 0.00 | 0.00 | 0.00 | 37 | 1016.5 | |
| 20260503225317 | 61 | 0.0 | 0.0 | 0.00 | 0.00 | 0.00 | 34 | 1016.4 | |
| 20260503224337 | 62 | 0.0 | 0.9 | 0.00 | 0.00 | 0.00 | 33 | 1016.6 | |
| 20260503223317 | 62 | 0.0 | 0.0 | 0.00 | 0.00 | 0.00 | 34 | 1016.7 | |
| 20260503222317 | 62 | 0.0 | 0.0 | 0.00 | 0.00 | 0.00 | 35 | 1016.6 | |
| 20260503221317 | 63 | 0.0 | 0.9 | 0.00 | 0.00 | 0.00 | 31 | 1016.6 | |
| 20260503220317 | 63 | 270 | 1.7 | 1.7 | 0.00 | 0.00 | 0.00 | 29 | 1016.6 |
| 20260503215317 | 63 | 0.0 | 0.9 | 0.00 | 0.00 | 0.00 | 30 | 1016.8 | |
| 20260503214317 | 63 | 158 | 0.9 | 1.7 | 0.00 | 0.00 | 0.00 | 29 | 1016.7 |